• Join FlightAware (Why Join?)
  • Login
  • US Flag 
12:58AM EDT


 

Airport Tracker/Info


-or-


 

Live Flight TrackerFlight Track Log ✈ CTL14 ✈ 25-Apr-2013 ✈ KPWK - KOSU

Flight Track Log - Related Links

Times and Time Zones

All times are in EDT time to prevent confusion due to time zone crossing. See the CTL14 flight status page for this flight to view local times or setup timezone preferences in your user account.

Time Position Orientation Groundspeed Altitude Reporting Facility
EDT Latitude Longitude Course Direction KTS MPH feet Rate Location/Type
12:17AM 42.1500 -87.8500 37° Northeast 150 173 2,600  Level Chicago TRACON
12:18AM 42.1500 -87.8000 90° East 153 176 3,500 840 Climbing Chicago TRACON
12:19AM 42.1603 -87.7428 76° East 157 181 4,300 780 Climbing Chicago Center
12:20AM 42.1647 -87.6875 84° East 153 176 5,100 780 Climbing Chicago Center
12:21AM 42.1622 -87.6281 93° East 161 185 5,900 660 Climbing Chicago Center
12:22AM 42.1408 -87.5769 119° Southeast 158 182 6,500 600 Climbing Chicago Center
12:23AM 42.1197 -87.5225 118° Southeast 163 188 7,200 600 Climbing Chicago Center
12:24AM 42.0964 -87.4689 120° Southeast 165 190 7,800 540 Climbing Chicago Center
12:25AM 42.0731 -87.4164 121° Southeast 165 190 8,400 540 Climbing Chicago Center
12:26AM 42.0503 -87.3622 120° Southeast 166 191 9,000 300 Climbing Chicago Center
12:27AM 42.0261 -87.3031 119° Southeast 175 201 9,100  Climbing Chicago Center
12:28AM 41.9975 -87.2392 121° Southeast 192 221 9,100  Level Chicago Center
12:29AM 41.9683 -87.1742 121° Southeast 200 230 9,100  Level Chicago Center
12:30AM 41.9431 -87.1094 118° Southeast 199 229 9,100  Level Chicago Center
12:31AM 41.9133 -87.0483 123° Southeast 196 226 9,100  Level Chicago Center
12:32AM 41.8828 -86.9822 122° Southeast 204 235 9,100 -60 Level Chicago Center
12:33AM 41.8500 -86.9092 121° Southeast 195 224 9,000 -60 Descending Chicago Center
12:34AM 41.8203 -86.8453 122° Southeast 200 230 9,000  Level Chicago Center
12:35AM 41.7922 -86.7822 121° Southeast 198 228 9,000  Level Chicago Center
12:36AM 41.7642 -86.7206 121° Southeast 196 226 9,000  Level Chicago Center
12:37AM 41.7411 -86.6672 120° Southeast 195 224 9,100  Climbing Chicago Center
12:38AM 41.7119 -86.6050 122° Southeast 195 224 9,100  Level Chicago Center
12:39AM 41.6847 -86.5425 120° Southeast 195 224 9,100  Level Chicago Center
12:40AM 41.6561 -86.4803 122° Southeast 196 226 9,100 -60 Level Chicago Center
12:41AM 41.6225 -86.4050 121° Southeast 197 227 9,000 -60 Descending Chicago Center
12:42AM 41.5950 -86.3411 120° Southeast 198 228 9,000  Level Chicago Center
12:43AM 41.5664 -86.2783 121° Southeast 199 229 9,000  Level Chicago Center
12:45AM 41.5114 -86.1525 120° Southeast 196 226 9,000  Level Chicago Center
12:46AM 41.4833 -86.0906 121° Southeast 196 226 9,000  Level Chicago Center
12:48AM 41.4381 -85.9847 120° Southeast 197 227 9,000  Level Indianapolis Center
12:48AM 41.4283 -85.9644 123° Southeast 198 228 9,000 60 Level Chicago Center
12:49AM 41.4003 -85.9025 121° Southeast 197 227 9,100  Climbing Chicago Center
12:50AM 41.3711 -85.8408 122° Southeast 198 228 9,000 -60 Descending Chicago Center
12:51AM 41.3433 -85.7792 121° Southeast 195 224 9,000  Level Chicago Center
12:52AM 41.3153 -85.7172 121° Southeast 196 226 9,100  Climbing Chicago Center
12:53AM 41.2869 -85.6547 121° Southeast 198 228 9,000 -60 Descending Chicago Center
12:54AM 41.2594 -85.5917 120° Southeast 198 228 9,000  Level Chicago Center
12:55AM 41.2317 -85.5297 121° Southeast 197 227 9,000  Level Chicago Center
12:56AM 41.2039 -85.4700 122° Southeast 193 222 9,000  Level Chicago Center
12:57AM 41.1742 -85.4125 124° Southeast 189 217 9,000  Level Chicago Center
12:58AM 41.1469 -85.3506 120° Southeast 194 223 9,000  Level Chicago Center
12:59AM 41.1178 -85.2889 122° Southeast 198 228 9,000  Level Chicago Center
01:00AM 41.0900 -85.2294 122° Southeast 194 223 9,000  Level Chicago Center
01:01AM 41.0622 -85.1678 121° Southeast 193 222 9,100  Climbing Chicago Center
01:02AM 41.0350 -85.1081 121° Southeast 192 221 9,000 -60 Descending Chicago Center
01:03AM 41.0006 -85.0367 123° Southeast 193 222 9,000  Level Chicago Center
01:05AM 40.9553 -84.9364 121° Southeast 192 221 9,000  Level Indianapolis Center
01:05AM 40.9456 -84.9161 122° Southeast 191 220 9,000  Level Chicago Center
01:06AM 40.9178 -84.8556 121° Southeast 192 221 9,000  Level Chicago Center
01:07AM 40.8892 -84.7986 124° Southeast 189 217 9,000  Level Chicago Center
01:08AM 40.8628 -84.7381 120° Southeast 190 219 9,000 -60 Level Chicago Center
01:09AM 40.8344 -84.6781 122° Southeast 193 222 8,900 -240 Descending Chicago Center
01:10AM 40.8078 -84.6164 120° Southeast 192 221 8,600 -300 Descending Chicago Center
01:11AM 40.7767 -84.5547 124° Southeast 199 229 8,400 -240 Descending Chicago Center
01:12AM 40.7494 -84.4931 120° Southeast 198 228 8,200 -240 Descending Chicago Center
01:13AM 40.7231 -84.4300 119° Southeast 197 227 8,000 -240 Descending Chicago Center
01:14AM 40.6989 -84.3647 116° Southeast 198 228 7,800 -240 Descending Chicago Center
01:15AM 40.6789 -84.3208 121° Southeast 195 224 7,600 -240 Descending Indianapolis Center
01:15AM 40.6622 -84.2869 123° Southeast 196 226 7,500 -120 Descending Indianapolis Center
01:16AM 40.6486 -84.2603 124° Southeast 194 223 7,500 -240 Level Indianapolis Center
01:16AM 40.6333 -84.2278 122° Southeast 193 222 7,300 -300 Descending Indianapolis Center
01:17AM 40.6219 -84.1975 116° Southeast 194 223 7,200 -300 Descending Indianapolis Center
01:17AM 40.6028 -84.1606 124° Southeast 198 228 7,000 -240 Descending Indianapolis Center
01:18AM 40.5981 -84.1464 114° Southeast 195 224 7,000 -240 Level Indianapolis Center
01:19AM 40.5681 -84.0814 121° Southeast 203 234 6,700 -300 Descending Indianapolis Center
01:19AM 40.5475 -84.0350 120° Southeast 198 228 6,500 -240 Descending Indianapolis Center
01:20AM 40.5408 -84.0203 121° Southeast 197 227 6,500 -240 Level Indianapolis Center
01:20AM 40.5167 -83.9733 124° Southeast 195 224 6,300 -300 Descending Indianapolis Center
01:21AM 40.5108 -83.9581 117° Southeast 197 227 6,200 -240 Descending Indianapolis Center
01:21AM 40.4858 -83.9117 125° Southeast 195 224 6,100 -240 Descending Indianapolis Center
01:22AM 40.4819 -83.8978 110° East 196 226 6,000 -240 Descending Indianapolis Center
01:22AM 40.4625 -83.8594 124° Southeast 192 221 5,900 -240 Descending Indianapolis Center
01:23AM 40.4539 -83.8381 118° Southeast 193 222 5,800 -240 Descending Indianapolis Center
01:23AM 40.4314 -83.7978 126° Southeast 189 217 5,700 -120 Descending Indianapolis Center
01:24AM 40.4247 -83.7806 117° Southeast 190 219 5,700 -300 Level Indianapolis Center
01:24AM 40.4044 -83.7394 123° Southeast 192 221 5,400 -300 Descending Indianapolis Center
01:25AM 40.3956 -83.7211 122° Southeast 191 220 5,400 -240 Level Indianapolis Center
01:25AM 40.3733 -83.6781 124° Southeast 194 223 5,200 -300 Descending Indianapolis Center
01:26AM 40.3658 -83.6600 119° Southeast 193 222 5,100 -240 Descending Indianapolis Center
01:26AM 40.3442 -83.6197 125° Southeast 194 223 5,000 -120 Descending Indianapolis Center
01:27AM 40.3375 -83.6000 114° Southeast 193 222 5,000 -240 Level Indianapolis Center
01:27AM 40.3150 -83.5614 127° Southeast 193 222 4,800 -420 Descending Indianapolis Center
01:28AM 40.3067 -83.5408 118° Southeast 193 222 4,600 -420 Descending Indianapolis Center
01:28AM 40.2856 -83.5031 126° Southeast 196 226 4,400 -420 Descending Indianapolis Center
01:29AM 40.2767 -83.4806 117° Southeast 195 224 4,200 -420 Descending Indianapolis Center
01:29AM 40.2567 -83.4392 122° Southeast 200 230 4,000 -420 Descending Indianapolis Center
01:30AM 40.2469 -83.4178 121° Southeast 198 228 3,800 -420 Descending Indianapolis Center
01:30AM 40.2275 -83.3811 125° Southeast 195 224 3,600 -240 Descending Indianapolis Center
01:31AM 40.2194 -83.3592 116° Southeast 198 228 3,600  Level Indianapolis Center